createdAt,value
2019-05-21T01:57:38.986Z,78.77
2019-05-21T02:00:08.549Z,78.77
2019-05-21T02:02:39.210Z,76.24
2019-05-21T02:05:08.726Z,77.36
2019-05-21T02:07:38.332Z,76.97
2019-05-21T02:10:11.425Z,76.91
2019-05-21T02:12:43.882Z,77.03
2019-05-21T02:15:13.450Z,77.55
2019-05-21T02:17:43.417Z,77.85
2019-05-21T02:20:13.543Z,77.49
2019-05-21T02:22:43.274Z,77.45
2019-05-21T02:25:13.612Z,78.89
2019-05-21T02:27:43.187Z,78.10
2019-05-21T02:30:14.174Z,78.37
2019-05-21T02:32:44.639Z,78.94
2019-05-21T02:35:16.761Z,78.48
2019-05-21T02:37:46.444Z,78.70
2019-05-21T02:40:17.289Z,80.51
2019-05-21T02:42:48.792Z,79.10
2019-05-21T02:45:18.869Z,80.05
2019-05-21T02:47:49.385Z,79.70
2019-05-21T02:50:21.660Z,79.95
2019-05-21T02:52:51.023Z,80.58
2019-05-21T02:55:20.573Z,80.55
2019-05-21T02:57:50.784Z,80.16
2019-05-21T03:00:42.446Z,80.79
2019-05-21T03:03:14.203Z,80.85
2019-05-21T03:05:44.199Z,81.17
2019-05-21T03:08:36.889Z,81.17
2019-05-21T03:11:16.672Z,81.29
2019-05-21T03:13:55.513Z,81.37
2019-05-21T03:16:31.102Z,81.34
2019-05-21T03:19:08.867Z,81.69
2019-05-21T03:21:38.968Z,81.23
2019-05-21T03:24:10.855Z,81.74
2019-05-21T03:26:40.981Z,81.43
2019-05-21T03:29:11.463Z,81.30
2019-05-21T03:31:42.601Z,81.55
2019-05-21T04:12:41.294Z,81.56
2019-05-21T04:16:45.202Z,81.51
2019-05-21T04:23:29.617Z,81.99
2019-05-21T04:26:44.463Z,81.79
2019-05-21T04:58:34.123Z,81.83
2019-05-21T05:01:14.813Z,82.24
2019-05-21T05:04:00.364Z,81.58
2019-05-21T05:06:40.738Z,81.59
2019-05-21T05:09:15.887Z,81.55
2019-05-21T05:12:20.617Z,81.57
2019-05-21T05:14:45.577Z,81.78
2019-05-21T05:17:11.193Z,81.92
2019-05-21T05:19:45.386Z,82.26
2019-05-21T05:22:23.139Z,81.67
2019-05-21T05:25:04.083Z,81.59
2019-05-21T05:27:40.420Z,81.42
2019-05-21T05:30:57.254Z,81.47
2019-05-21T05:40:51.121Z,81.20
2019-05-21T05:46:48.148Z,81.30
2019-05-21T05:49:27.777Z,81.20
2019-05-21T05:51:57.543Z,81.31
2019-05-21T05:54:34.720Z,81.25
2019-05-21T05:57:04.172Z,81.39
2019-05-21T05:59:34.159Z,81.46
2019-05-21T06:02:03.709Z,81.69
2019-05-21T06:04:33.520Z,81.46
2019-05-21T06:07:02.990Z,81.43
2019-05-21T06:09:32.766Z,81.72
2019-05-21T06:12:02.873Z,81.66
2019-05-21T06:14:33.025Z,81.95
2019-05-21T06:17:02.946Z,81.90
2019-05-21T06:19:32.269Z,81.92
2019-05-21T06:22:01.520Z,81.78
2019-05-21T06:24:30.881Z,81.66
2019-05-21T06:27:00.340Z,81.34
2019-05-21T06:29:29.899Z,81.19
2019-05-21T06:31:59.367Z,81.40
2019-05-21T06:34:28.528Z,81.26
2019-05-21T06:36:58.129Z,81.31
2019-05-21T06:39:27.725Z,81.37
2019-05-21T06:41:59.559Z,81.49
2019-05-21T06:44:28.604Z,81.48
2019-05-21T06:46:57.914Z,81.19
2019-05-21T06:49:26.974Z,81.26
2019-05-21T06:51:56.031Z,81.31
2019-05-21T06:54:25.404Z,81.57
2019-05-21T06:56:54.358Z,81.82
2019-05-21T06:59:23.438Z,81.71
2019-05-21T07:01:52.850Z,81.83
2019-05-21T07:04:22.003Z,81.83
2019-05-21T07:06:51.514Z,81.92
2019-05-21T07:09:20.841Z,82.06
2019-05-21T07:11:49.879Z,82.06
2019-05-21T07:14:18.967Z,82.14
2019-05-21T07:16:48.265Z,81.94
2019-05-21T07:19:17.579Z,81.89
2019-05-21T07:21:47.070Z,81.92
2019-05-21T07:24:16.063Z,82.06
2019-05-21T07:26:45.386Z,82.11
2019-05-21T07:29:14.846Z,81.97
2019-05-21T07:31:44.059Z,82.13
2019-05-21T07:34:13.135Z,81.90
2019-05-21T07:36:42.818Z,81.97
2019-05-21T07:39:12.235Z,82.28
2019-05-21T07:41:41.652Z,81.94
2019-05-21T07:44:11.200Z,81.92
2019-05-21T07:46:40.691Z,81.84
2019-05-21T07:49:10.039Z,81.82
2019-05-21T07:51:39.351Z,81.79
2019-05-21T07:54:08.752Z,81.78
2019-05-21T07:56:37.929Z,82.02
2019-05-21T07:59:07.305Z,81.95
2019-05-21T16:33:33.531Z,81.87
2019-05-21T16:38:34.785Z,88.21
2019-05-21T16:39:17.400Z,81.87
2019-05-21T16:41:04.931Z,86.87
2019-05-21T16:43:34.034Z,86.63
2019-05-21T16:46:03.436Z,86.96
2019-05-21T16:48:32.679Z,86.27
2019-05-21T16:51:01.886Z,86.37
2019-05-21T16:53:31.180Z,86.74
2019-05-21T16:56:01.667Z,86.76
2019-05-21T16:58:31.309Z,86.43
2019-05-21T17:01:00.892Z,86.75
2019-05-21T17:03:30.049Z,86.83
2019-05-21T17:05:59.509Z,86.92
2019-05-21T17:08:32.040Z,86.99
2019-05-21T17:11:01.337Z,87.04
2019-05-21T17:13:30.792Z,87.29
2019-05-21T17:16:00.754Z,87.18
2019-05-21T17:18:30.557Z,87.12
2019-05-21T17:20:59.736Z,87.28
2019-05-21T17:23:41.025Z,87.47
2019-05-21T17:26:10.741Z,87.38
2019-05-21T17:28:48.289Z,87.36
2019-05-21T17:31:23.393Z,87.37
2019-05-21T17:33:52.905Z,87.50
2019-05-21T17:36:22.469Z,87.69
2019-05-21T17:38:52.094Z,87.82
2019-05-21T17:41:22.209Z,87.98
2019-05-21T17:43:53.074Z,87.73
2019-05-21T17:46:23.890Z,87.64
2019-05-21T17:48:56.404Z,87.83
2019-05-21T17:51:27.805Z,87.94
2019-05-21T17:53:57.344Z,88.09
2019-05-21T17:56:28.354Z,88.15
2019-05-21T17:59:01.578Z,88.14
2019-05-21T18:01:31.177Z,88.00
2019-05-21T18:05:30.589Z,87.87
2019-05-21T18:07:40.768Z,88.24
2019-05-21T18:10:16.660Z,88.68
2019-05-21T18:12:57.562Z,88.67
2019-05-21T18:15:27.583Z,88.56
2019-05-21T18:19:00.904Z,88.84
2019-05-21T18:20:46.515Z,88.75
2019-05-21T18:23:26.030Z,88.85
2019-05-21T18:25:50.957Z,88.78
2019-05-21T18:28:21.678Z,88.64
2019-05-21T18:31:39.322Z,88.53
2019-05-21T18:34:10.089Z,88.60
2019-05-21T18:36:48.859Z,88.88
2019-05-21T18:39:24.425Z,88.81
2019-05-21T18:41:54.804Z,88.72
2019-05-21T18:44:28.021Z,88.53
2019-05-21T18:46:58.870Z,88.65
2019-05-21T18:50:35.550Z,89.02
2019-05-21T18:52:30.572Z,89.02
2019-05-21T18:54:52.052Z,89.10
2019-05-21T18:57:27.111Z,88.85
2019-05-21T19:00:07.202Z,88.98
2019-05-21T19:02:40.802Z,88.92
2019-05-21T19:05:11.187Z,89.14
2019-05-21T19:07:43.005Z,89.20
2019-05-21T19:10:22.952Z,89.07
2019-05-21T19:13:17.054Z,89.07
2019-05-21T19:15:47.048Z,89.25
2019-05-21T19:18:16.966Z,89.53
2019-05-21T19:20:50.132Z,89.58
2019-05-21T19:23:19.712Z,89.58
2019-05-21T19:25:53.432Z,89.60
2019-05-21T19:28:24.757Z,89.62
2019-05-21T19:31:05.332Z,89.88
2019-05-21T19:33:41.501Z,89.90
2019-05-21T19:36:12.887Z,89.81
2019-05-21T19:38:42.199Z,89.71
2019-05-21T19:42:55.067Z,89.84
2019-05-21T19:53:18.876Z,90.35
2019-05-21T19:57:01.375Z,90.45
2019-05-21T19:59:38.148Z,90.56
2019-05-21T20:02:06.874Z,90.65
2019-05-21T20:04:37.251Z,90.43
2019-05-21T20:07:20.525Z,90.41
2019-05-21T20:09:54.757Z,90.39
2019-05-21T20:12:30.259Z,90.15
2019-05-21T20:15:01.336Z,90.36
2019-05-21T20:17:32.434Z,90.45
2019-05-21T20:20:03.477Z,90.42
2019-05-21T20:22:35.315Z,90.50
2019-05-21T20:25:16.084Z,90.47
2019-05-21T20:27:53.519Z,90.39
2019-05-21T20:30:31.782Z,90.50
2019-05-21T20:33:42.078Z,90.52
2019-05-21T20:36:10.892Z,90.64
2019-05-21T20:38:48.806Z,90.67
2019-05-21T20:41:32.280Z,90.74
2019-05-21T20:44:54.705Z,90.70
2019-05-21T20:47:40.472Z,90.69
2019-05-21T20:50:59.027Z,90.63
2019-05-21T20:53:49.210Z,90.68
2019-05-21T20:56:28.538Z,90.84
2019-05-21T20:59:28.356Z,90.82
2019-05-21T21:02:36.838Z,90.81
2019-05-21T21:05:29.994Z,91.04
2019-05-21T21:08:27.859Z,91.01
2019-05-21T21:11:44.176Z,91.02
2019-05-21T21:14:54.583Z,91.17
2019-05-21T21:18:14.887Z,91.28
2019-05-21T21:21:33.799Z,91.16
2019-05-21T21:24:25.674Z,91.33
2019-05-21T21:27:10.235Z,91.30
2019-05-21T21:30:07.237Z,91.25
2019-05-21T21:38:22.332Z,91.24
2019-05-21T21:41:53.102Z,91.39
2019-05-21T21:44:43.878Z,91.45
2019-05-21T21:47:15.638Z,91.53
2019-05-21T21:49:46.986Z,91.43
2019-05-21T21:52:18.894Z,91.28
2019-05-21T21:54:48.283Z,91.20
2019-05-21T21:57:19.540Z,91.17
2019-05-21T21:59:49.352Z,91.15
2019-05-21T22:02:29.164Z,91.13
2019-05-21T22:05:00.031Z,91.15
2019-05-21T22:07:30.252Z,91.27
2019-05-21T22:09:59.962Z,91.20
2019-05-21T22:12:30.025Z,91.08
2019-05-21T22:15:02.437Z,90.96
2019-05-21T22:17:33.979Z,90.89
2019-05-21T22:20:05.498Z,90.96
2019-05-21T22:22:38.475Z,91.11
2019-05-21T22:25:08.235Z,91.07
2019-05-21T22:27:38.464Z,90.95
2019-05-21T22:30:19.251Z,90.95
2019-05-21T22:36:13.096Z,90.97
2019-05-21T22:38:43.804Z,91.15
2019-05-21T22:41:14.254Z,91.12
2019-05-21T22:43:45.153Z,91.08
2019-05-21T22:46:15.547Z,91.09
2019-05-21T22:48:52.764Z,91.05
2019-05-21T22:51:23.021Z,91.01
2019-05-21T22:53:52.913Z,91.06
2019-05-21T22:56:23.381Z,91.06
2019-05-21T22:58:54.198Z,91.03
2019-05-21T23:01:26.229Z,91.08
2019-05-21T23:03:57.319Z,91.11
2019-05-21T23:06:27.699Z,90.97
2019-05-21T23:08:58.234Z,90.89
2019-05-21T23:11:31.260Z,90.84
2019-05-21T23:14:01.833Z,91.00
2019-05-21T23:16:32.168Z,91.08
2019-05-21T23:19:04.325Z,91.27
2019-05-21T23:21:38.334Z,91.24
2019-05-21T23:24:13.970Z,91.26
2019-05-21T23:26:45.245Z,91.24
2019-05-21T23:29:21.596Z,91.18
2019-05-21T23:31:53.012Z,91.25
2019-05-21T23:34:24.720Z,91.19
2019-05-21T23:36:55.210Z,91.20
2019-05-21T23:39:28.963Z,91.28
2019-05-21T23:41:59.232Z,91.29
2019-05-21T23:44:29.638Z,91.26
2019-05-21T23:47:00.656Z,91.30
2019-05-21T23:49:30.362Z,91.27
2019-05-21T23:52:00.803Z,91.25
2019-05-21T23:55:20.078Z,91.35
2019-05-21T23:58:58.481Z,91.37
